createdAt,value
2018-01-24T00:01:09.335Z,92.50
2018-01-24T00:03:36.947Z,92.40
2018-01-24T00:06:04.516Z,91.80
2018-01-24T00:08:32.074Z,91.70
2018-01-24T00:10:59.580Z,91.60
2018-01-24T00:13:27.115Z,91.70
2018-01-24T00:15:54.757Z,91.50
2018-01-24T00:18:22.287Z,91.50
2018-01-24T00:20:50.578Z,91.40
2018-01-24T00:23:18.122Z,91.40
2018-01-24T00:25:46.392Z,91.30
2018-01-24T00:28:14.700Z,91.30
2018-01-24T00:30:42.221Z,91.40
2018-01-24T00:33:09.753Z,91.30
2018-01-24T00:35:37.315Z,91.30
2018-01-24T00:38:04.862Z,91.40
2018-01-24T00:40:32.485Z,91.30
2018-01-24T00:43:00.036Z,91.30
2018-01-24T00:45:28.321Z,91.20
2018-01-24T00:47:55.894Z,91.50
2018-01-24T00:50:23.671Z,91.10
2018-01-24T00:52:51.330Z,91.00
2018-01-24T00:55:18.839Z,90.90
2018-01-24T00:57:46.441Z,90.90
2018-01-24T01:00:13.991Z,90.50
2018-01-24T01:02:41.550Z,90.80
2018-01-24T01:05:09.152Z,90.90
2018-01-24T01:07:36.692Z,90.90
2018-01-24T01:10:04.225Z,90.90
2018-01-24T01:12:31.726Z,91.00
2018-01-24T01:14:59.268Z,91.00
2018-01-24T01:17:26.792Z,91.00
2018-01-24T01:19:54.405Z,91.00
2018-01-24T01:22:22.018Z,91.10
2018-01-24T01:24:49.570Z,91.10
2018-01-24T01:27:17.854Z,91.00
2018-01-24T01:29:45.392Z,91.00
2018-01-24T01:32:12.977Z,91.00
2018-01-24T01:34:40.571Z,91.00
2018-01-24T01:37:08.150Z,91.00
2018-01-24T01:39:35.642Z,91.00
2018-01-24T01:42:03.959Z,90.90
2018-01-24T01:44:31.462Z,90.90
2018-01-24T01:46:59.015Z,90.80
2018-01-24T01:49:26.558Z,90.80
2018-01-24T01:51:55.774Z,90.80
2018-01-24T01:54:24.192Z,90.70
2018-01-24T01:56:51.710Z,90.70
2018-01-24T01:59:19.236Z,90.70
2018-01-24T02:01:46.751Z,90.80
2018-01-24T02:04:15.087Z,90.70
2018-01-24T02:06:42.612Z,90.70
2018-01-24T02:09:10.180Z,90.70
2018-01-24T02:11:37.724Z,90.70
2018-01-24T02:14:05.283Z,90.70
2018-01-24T02:16:32.806Z,90.70
2018-01-24T02:19:00.355Z,90.70
2018-01-24T02:21:27.858Z,90.60
2018-01-24T02:23:55.394Z,90.60
2018-01-24T02:26:23.691Z,90.70
2018-01-24T02:28:51.363Z,90.60
2018-01-24T02:31:18.911Z,90.70
2018-01-24T02:33:46.464Z,90.70
2018-01-24T02:36:14.002Z,90.80
2018-01-24T02:38:54.181Z,90.80
2018-01-24T02:41:21.716Z,90.80
2018-01-24T02:43:50.003Z,90.90
2018-01-24T02:46:18.296Z,90.80
2018-01-24T02:48:45.829Z,90.80
2018-01-24T02:51:14.170Z,90.90
2018-01-24T02:53:41.691Z,90.90
2018-01-24T02:56:09.241Z,90.90
2018-01-24T02:58:37.537Z,90.90
2018-01-24T03:01:05.066Z,90.90
2018-01-24T03:03:33.340Z,90.90
2018-01-24T03:06:01.645Z,90.90
2018-01-24T03:08:29.257Z,90.90
2018-01-24T03:10:57.555Z,91.00
2018-01-24T03:13:25.953Z,91.00
2018-01-24T03:15:53.462Z,90.90
2018-01-24T03:18:20.992Z,91.00
2018-01-24T03:20:48.506Z,91.00
2018-01-24T03:23:16.825Z,91.00
2018-01-24T03:25:44.359Z,90.90
2018-01-24T03:28:12.746Z,91.00
2018-01-24T03:30:40.335Z,91.00
2018-01-24T03:33:07.878Z,91.00
2018-01-24T03:35:35.391Z,91.00
2018-01-24T03:38:02.931Z,91.00
2018-01-24T03:40:30.466Z,91.00
2018-01-24T03:42:58.118Z,90.90
2018-01-24T03:45:25.630Z,91.00
2018-01-24T03:47:53.170Z,91.00
2018-01-24T03:50:20.683Z,91.30
2018-01-24T03:52:48.216Z,91.00
2018-01-24T03:55:16.514Z,91.00
2018-01-24T03:57:44.038Z,91.00
2018-01-24T04:00:12.619Z,91.10
2018-01-24T04:02:40.189Z,91.00
2018-01-24T04:05:08.486Z,91.10
2018-01-24T04:07:36.782Z,91.10
2018-01-24T04:10:04.340Z,91.10
2018-01-24T04:12:31.855Z,91.10
2018-01-24T04:14:59.483Z,91.00
2018-01-24T04:17:27.015Z,90.90
2018-01-24T04:19:54.515Z,91.00
2018-01-24T04:22:22.228Z,91.00
2018-01-24T04:24:54.415Z,91.00
2018-01-24T04:27:21.946Z,90.90
2018-01-24T04:29:49.438Z,91.00
2018-01-24T04:32:17.023Z,90.90
2018-01-24T04:34:44.639Z,90.90
2018-01-24T04:37:12.184Z,91.00
2018-01-24T04:39:39.702Z,91.00
2018-01-24T04:42:07.275Z,90.90
2018-01-24T04:44:34.773Z,90.90
2018-01-24T04:47:02.307Z,90.90
2018-01-24T04:49:30.594Z,90.90
2018-01-24T04:51:58.142Z,90.90
2018-01-24T04:54:26.426Z,90.90
2018-01-24T04:56:54.714Z,90.90
2018-01-24T04:59:22.255Z,90.90
2018-01-24T05:01:50.537Z,90.90
2018-01-24T05:04:18.841Z,90.90
2018-01-24T05:06:46.371Z,90.90
2018-01-24T05:09:14.668Z,90.80
2018-01-24T05:11:42.176Z,90.80
2018-01-24T05:14:09.720Z,90.80
2018-01-24T05:16:37.251Z,90.80
2018-01-24T05:19:04.819Z,90.90
2018-01-24T05:21:36.835Z,90.90
2018-01-24T05:24:05.143Z,91.00
2018-01-24T05:26:32.662Z,91.00
2018-01-24T05:29:00.166Z,91.10
2018-01-24T05:31:27.705Z,91.20
2018-01-24T05:33:55.223Z,91.30
2018-01-24T05:36:22.771Z,91.30
2018-01-24T05:38:50.296Z,91.40
2018-01-24T05:41:17.866Z,91.40
2018-01-24T05:43:45.448Z,91.40
2018-01-24T05:46:13.029Z,91.50
2018-01-24T05:48:40.651Z,91.50
2018-01-24T05:51:08.308Z,91.60
2018-01-24T05:53:35.966Z,91.60
2018-01-24T05:56:03.540Z,91.70
2018-01-24T05:58:31.063Z,91.70
2018-01-24T06:00:59.377Z,91.80
2018-01-24T06:03:27.125Z,91.80
2018-01-24T06:05:54.702Z,91.80
2018-01-24T06:08:22.243Z,91.90
2018-01-24T06:10:49.875Z,91.90
2018-01-24T06:13:18.275Z,92.00
2018-01-24T06:15:45.822Z,92.00
2018-01-24T06:18:13.354Z,92.10
2018-01-24T06:20:40.946Z,92.20
2018-01-24T06:23:08.522Z,92.20
2018-01-24T06:25:36.047Z,92.20
2018-01-24T06:28:04.371Z,92.40
2018-01-24T06:30:31.946Z,92.40
2018-01-24T06:32:59.472Z,92.50
2018-01-24T06:35:27.028Z,92.70
2018-01-24T06:37:54.538Z,92.70
2018-01-24T06:40:22.089Z,92.80
2018-01-24T06:42:49.613Z,92.90
2018-01-24T06:45:17.138Z,93.00
2018-01-24T06:47:45.470Z,93.10
2018-01-24T06:50:12.968Z,93.10
2018-01-24T06:52:41.283Z,93.10
2018-01-24T06:55:08.835Z,93.10
2018-01-24T06:57:40.675Z,93.10
2018-01-24T07:00:09.063Z,93.10
2018-01-24T07:02:36.579Z,93.10
2018-01-24T07:05:04.152Z,93.10
2018-01-24T07:07:31.671Z,93.10
2018-01-24T07:09:59.227Z,93.10
2018-01-24T07:12:38.690Z,93.10
2018-01-24T07:15:06.315Z,93.10
2018-01-24T07:17:33.810Z,93.00
2018-01-24T07:20:01.368Z,93.00
2018-01-24T07:22:28.891Z,93.00
2018-01-24T07:24:56.457Z,93.00
2018-01-24T07:27:23.990Z,93.00
2018-01-24T07:29:51.558Z,93.00
2018-01-24T07:32:19.219Z,93.00
2018-01-24T07:34:46.775Z,93.00
2018-01-24T07:37:14.350Z,92.90
2018-01-24T07:39:41.890Z,92.90
2018-01-24T07:42:09.416Z,92.90
2018-01-24T07:44:37.160Z,92.80
2018-01-24T07:47:04.739Z,92.80
2018-01-24T07:49:33.051Z,92.60
2018-01-24T07:52:00.649Z,92.60
2018-01-24T07:54:28.202Z,92.60
2018-01-24T07:56:55.858Z,92.50
2018-01-24T07:59:23.395Z,92.50
2018-01-24T08:01:50.941Z,92.40
2018-01-24T08:04:19.247Z,92.30
2018-01-24T08:06:46.810Z,92.30
2018-01-24T08:09:14.405Z,92.20
2018-01-24T08:11:41.943Z,92.20
2018-01-24T08:14:09.504Z,92.10
2018-01-24T08:16:37.047Z,92.10
2018-01-24T08:19:04.568Z,92.00
2018-01-24T08:21:32.856Z,91.80
2018-01-24T08:24:01.157Z,91.80
2018-01-24T08:26:28.719Z,91.70
2018-01-24T08:28:56.279Z,91.70
2018-01-24T08:31:23.791Z,91.70
2018-01-24T08:33:51.362Z,91.70
2018-01-24T08:36:19.788Z,91.60
2018-01-24T08:38:47.333Z,91.60
2018-01-24T08:41:14.841Z,91.60
2018-01-24T08:43:42.435Z,91.50
2018-01-24T08:46:10.042Z,91.50
2018-01-24T08:48:37.571Z,91.40
2018-01-24T08:51:15.073Z,91.40
2018-01-24T08:53:42.587Z,91.30
2018-01-24T08:56:10.906Z,91.20
2018-01-24T08:58:38.454Z,91.20
2018-01-24T09:01:05.957Z,91.20
2018-01-24T09:03:33.575Z,91.20
2018-01-24T09:06:01.123Z,91.50
2018-01-24T09:08:28.877Z,91.20
2018-01-24T09:10:56.638Z,91.10
2018-01-24T09:13:24.946Z,91.00
2018-01-24T09:15:52.608Z,91.00
2018-01-24T09:18:21.051Z,91.10
2018-01-24T09:20:49.413Z,91.00
2018-01-24T09:23:16.906Z,90.90
2018-01-24T09:25:44.419Z,90.90
2018-01-24T09:28:12.037Z,90.70
2018-01-24T09:30:39.912Z,90.40
2018-01-24T09:33:07.468Z,90.00
2018-01-24T09:35:35.062Z,89.30
2018-01-24T09:38:02.554Z,89.20
2018-01-24T09:40:30.074Z,89.60
2018-01-24T09:42:57.656Z,90.00
2018-01-24T09:45:25.368Z,90.10
2018-01-24T09:47:52.890Z,90.20
2018-01-24T09:50:21.198Z,90.10
2018-01-24T09:52:49.200Z,90.00
2018-01-24T09:55:16.727Z,90.00
2018-01-24T09:57:44.251Z,89.90
2018-01-24T10:00:12.567Z,88.90
2018-01-24T10:02:40.104Z,88.90
2018-01-24T10:05:07.738Z,89.30
2018-01-24T10:07:36.040Z,89.70
2018-01-24T10:10:03.553Z,89.50
2018-01-24T10:12:31.135Z,89.30
2018-01-24T10:14:58.737Z,88.80
2018-01-24T10:17:26.264Z,88.90
2018-01-24T10:19:54.678Z,88.50
2018-01-24T10:22:22.185Z,88.50
2018-01-24T10:24:49.835Z,87.50
2018-01-24T10:27:17.456Z,86.30
2018-01-24T10:29:44.982Z,85.40
2018-01-24T10:32:14.766Z,83.40
2018-01-24T10:34:42.272Z,83.40
2018-01-24T10:37:09.812Z,82.60
2018-01-24T10:39:38.123Z,84.00
2018-01-24T10:42:05.658Z,83.80
2018-01-24T10:44:33.221Z,85.00
2018-01-24T10:47:00.723Z,85.80
2018-01-24T10:49:28.276Z,85.70
2018-01-24T10:51:55.811Z,86.10
2018-01-24T10:54:23.355Z,86.40
2018-01-24T10:56:50.899Z,86.40
2018-01-24T10:59:19.258Z,86.80
2018-01-24T11:01:46.792Z,86.80
2018-01-24T11:04:14.345Z,86.80
2018-01-24T11:06:42.039Z,86.80
2018-01-24T11:09:10.365Z,86.40
2018-01-24T11:11:37.926Z,87.00
2018-01-24T11:14:05.462Z,87.00
2018-01-24T11:16:33.961Z,87.00
2018-01-24T11:19:01.483Z,87.00
2018-01-24T11:21:29.847Z,86.90
2018-01-24T11:23:57.375Z,86.60
2018-01-24T11:26:24.904Z,86.40
2018-01-24T11:28:52.411Z,86.40
2018-01-24T11:31:20.093Z,85.80
2018-01-24T11:33:47.840Z,85.20
2018-01-24T11:36:15.319Z,85.20
2018-01-24T11:38:42.922Z,84.70
2018-01-24T11:41:10.424Z,84.30
2018-01-24T11:43:37.982Z,83.30
2018-01-24T11:46:05.507Z,83.50
2018-01-24T11:48:33.168Z,82.70
2018-01-24T11:51:00.674Z,81.70
2018-01-24T11:53:28.216Z,82.40
2018-01-24T11:55:55.745Z,83.40
2018-01-24T11:58:23.419Z,82.60
2018-01-24T12:00:50.947Z,83.30
2018-01-24T12:03:18.500Z,82.80
2018-01-24T12:05:46.789Z,83.70
2018-01-24T12:08:14.331Z,83.70
2018-01-24T12:10:41.873Z,83.70
2018-01-24T12:13:09.402Z,84.20
2018-01-24T12:15:37.048Z,84.10
2018-01-24T12:18:04.598Z,84.30
2018-01-24T12:20:32.244Z,84.50
2018-01-24T12:22:59.879Z,85.30
2018-01-24T12:25:28.219Z,85.00
2018-01-24T12:27:55.734Z,84.90
2018-01-24T12:30:23.312Z,84.90
2018-01-24T12:32:50.823Z,84.90
2018-01-24T12:35:18.423Z,84.90
2018-01-24T12:37:45.975Z,84.90
2018-01-24T12:40:13.537Z,84.70
2018-01-24T12:42:41.198Z,84.50
2018-01-24T12:45:08.736Z,84.70
2018-01-24T12:47:37.104Z,83.90
2018-01-24T12:50:05.529Z,83.90
2018-01-24T12:52:33.191Z,83.90
2018-01-24T12:55:00.752Z,83.60
2018-01-24T12:57:28.408Z,83.50
2018-01-24T12:59:55.950Z,83.50
2018-01-24T13:02:23.503Z,83.40
2018-01-24T13:04:51.043Z,83.60
2018-01-24T13:07:19.368Z,83.80
2018-01-24T13:09:46.902Z,83.60
2018-01-24T13:12:15.351Z,83.30
2018-01-24T13:14:42.903Z,83.00
2018-01-24T13:17:10.529Z,82.60
2018-01-24T13:19:38.187Z,82.60
2018-01-24T13:22:05.758Z,82.30
2018-01-24T13:24:33.296Z,82.60
2018-01-24T13:27:00.868Z,82.40
2018-01-24T13:29:28.401Z,82.00
2018-01-24T13:31:55.939Z,81.80
2018-01-24T13:34:23.596Z,81.50
2018-01-24T13:36:51.189Z,81.70
2018-01-24T13:39:18.719Z,81.70
2018-01-24T13:41:46.231Z,81.50
2018-01-24T13:44:13.801Z,82.00
2018-01-24T13:46:41.854Z,81.40
2018-01-24T13:49:09.858Z,81.50
2018-01-24T13:51:37.358Z,81.60
2018-01-24T13:54:05.680Z,81.60
2018-01-24T13:56:33.309Z,81.60
2018-01-24T13:59:00.863Z,81.50
2018-01-24T14:01:28.513Z,81.10
2018-01-24T14:03:56.807Z,80.90
2018-01-24T14:06:24.343Z,80.90
2018-01-24T14:08:52.641Z,80.80
2018-01-24T14:11:20.243Z,80.80
2018-01-24T14:13:47.822Z,80.80
2018-01-24T14:16:15.598Z,81.20
2018-01-24T14:18:43.922Z,80.90
2018-01-24T14:21:11.498Z,80.80
2018-01-24T14:23:39.008Z,81.10
2018-01-24T14:26:07.303Z,81.30
2018-01-24T14:28:34.832Z,81.30
2018-01-24T14:31:03.138Z,81.30
2018-01-24T14:33:30.627Z,81.30
2018-01-24T14:35:58.212Z,81.10
2018-01-24T14:38:25.745Z,81.30
2018-01-24T14:40:53.287Z,81.20
2018-01-24T14:43:20.821Z,81.00
2018-01-24T14:45:48.378Z,81.40
2018-01-24T14:48:15.944Z,81.50
2018-01-24T14:50:43.517Z,81.60
2018-01-24T14:53:11.073Z,81.80
2018-01-24T14:55:38.657Z,82.10
2018-01-24T14:58:06.192Z,82.10
2018-01-24T15:00:33.754Z,82.50
2018-01-24T15:03:01.275Z,82.30
2018-01-24T15:05:29.594Z,82.40
2018-01-24T15:08:07.446Z,82.40
2018-01-24T15:10:35.789Z,82.60
2018-01-24T15:13:03.438Z,83.40
2018-01-24T15:15:31.103Z,82.50
2018-01-24T15:17:58.633Z,82.70
2018-01-24T15:20:27.019Z,81.50
2018-01-24T15:22:54.554Z,81.50
2018-01-24T15:25:22.879Z,81.80
2018-01-24T15:27:50.522Z,81.70
2018-01-24T15:30:18.092Z,81.90
2018-01-24T15:32:45.647Z,82.10
2018-01-24T15:35:13.183Z,82.30
2018-01-24T15:37:41.482Z,82.20
2018-01-24T15:40:09.134Z,82.20
2018-01-24T15:42:36.723Z,82.20
2018-01-24T15:45:04.283Z,82.30
2018-01-24T15:47:31.857Z,82.50
2018-01-24T15:49:59.370Z,82.20
2018-01-24T15:52:26.926Z,82.00
2018-01-24T15:54:54.511Z,81.80
2018-01-24T15:57:22.067Z,81.90
2018-01-24T15:59:49.617Z,82.10
2018-01-24T16:02:17.162Z,82.10
2018-01-24T16:04:44.691Z,82.10
2018-01-24T16:07:12.248Z,82.30
2018-01-24T16:09:39.847Z,82.30
2018-01-24T16:12:07.417Z,82.00
2018-01-24T16:14:34.984Z,82.20
2018-01-24T16:17:02.500Z,82.40
2018-01-24T16:19:30.914Z,82.90
2018-01-24T16:21:58.431Z,82.80
2018-01-24T16:24:25.987Z,82.90
2018-01-24T16:26:53.520Z,83.10
2018-01-24T16:29:21.056Z,82.90
2018-01-24T16:31:48.715Z,83.00
2018-01-24T16:34:16.253Z,83.10
2018-01-24T16:36:43.783Z,83.20
2018-01-24T16:39:12.093Z,84.20
2018-01-24T16:41:39.666Z,83.40
2018-01-24T16:44:07.224Z,83.50
2018-01-24T16:46:35.520Z,83.60
2018-01-24T16:49:03.071Z,83.60
2018-01-24T16:51:30.606Z,83.80
2018-01-24T16:53:58.186Z,83.30
2018-01-24T16:56:25.702Z,83.50
2018-01-24T16:58:54.122Z,83.40
2018-01-24T17:01:21.650Z,83.40
2018-01-24T17:03:49.243Z,83.40
2018-01-24T17:06:16.792Z,83.60
2018-01-24T17:08:44.330Z,83.60
2018-01-24T17:11:12.714Z,83.10
2018-01-24T17:13:41.030Z,83.20
2018-01-24T17:16:08.527Z,83.20
2018-01-24T17:18:36.835Z,82.80
2018-01-24T17:21:04.359Z,82.80
2018-01-24T17:23:31.966Z,82.90
2018-01-24T17:25:59.482Z,83.00
2018-01-24T17:28:27.824Z,82.70
2018-01-24T17:30:55.333Z,82.60
2018-01-24T17:33:23.770Z,82.40
2018-01-24T17:35:51.288Z,82.30
2018-01-24T17:38:22.226Z,83.20
2018-01-24T17:40:52.081Z,82.60
2018-01-24T17:43:19.590Z,82.80
2018-01-24T17:45:47.253Z,83.30
2018-01-24T17:48:15.823Z,83.30
2018-01-24T17:50:44.130Z,82.90
2018-01-24T17:53:11.649Z,83.00
2018-01-24T17:55:40.031Z,83.90
2018-01-24T17:58:08.341Z,84.00
2018-01-24T18:00:35.908Z,83.30
2018-01-24T18:03:03.474Z,82.70
2018-01-24T18:05:31.059Z,82.10
2018-01-24T18:07:58.688Z,82.10
2018-01-24T18:10:26.236Z,81.70
2018-01-24T18:12:53.804Z,81.90
2018-01-24T18:15:21.332Z,81.90
2018-01-24T18:17:49.669Z,81.40
2018-01-24T18:20:17.197Z,80.80
2018-01-24T18:22:45.196Z,80.70
2018-01-24T18:25:12.720Z,79.80
2018-01-24T18:27:40.275Z,79.70
2018-01-24T18:30:07.841Z,80.00
2018-01-24T18:32:36.959Z,79.00
2018-01-24T18:35:04.535Z,78.80
2018-01-24T18:37:32.802Z,78.00
2018-01-24T18:40:00.360Z,78.00
2018-01-24T18:42:27.895Z,78.20
2018-01-24T18:44:55.487Z,78.10
2018-01-24T18:47:23.035Z,78.00
2018-01-24T18:49:50.678Z,78.50
2018-01-24T18:52:18.270Z,78.10
2018-01-24T18:54:45.904Z,78.20
2018-01-24T18:57:13.419Z,77.40
2018-01-24T18:59:41.747Z,77.10
2018-01-24T19:02:09.309Z,77.10
2018-01-24T19:04:36.992Z,76.80
2018-01-24T19:07:04.508Z,76.60
2018-01-24T19:09:32.055Z,76.50
2018-01-24T19:11:59.635Z,76.50
2018-01-24T19:14:27.287Z,75.80
2018-01-24T19:16:54.840Z,76.00
2018-01-24T19:19:32.523Z,76.10
2018-01-24T19:22:00.077Z,75.80
2018-01-24T19:24:28.395Z,75.50
2018-01-24T19:26:55.915Z,75.50
2018-01-24T19:29:24.310Z,75.30
2018-01-24T19:31:51.828Z,75.30
2018-01-24T19:34:19.368Z,75.30
2018-01-24T19:36:46.906Z,75.20
2018-01-24T19:39:14.600Z,75.40
2018-01-24T19:41:42.138Z,75.30
2018-01-24T19:44:09.670Z,75.50
2018-01-24T19:46:38.078Z,75.30
2018-01-24T19:49:05.675Z,75.50
2018-01-24T19:51:35.127Z,75.30
2018-01-24T19:54:02.753Z,75.00
2018-01-24T19:56:31.378Z,75.70
2018-01-24T19:58:59.360Z,75.70
2018-01-24T20:01:27.739Z,76.10
2018-01-24T20:03:55.291Z,76.10
2018-01-24T20:06:22.855Z,76.20
2018-01-24T20:08:50.616Z,76.20
2018-01-24T20:11:18.165Z,76.30
2018-01-24T20:13:45.687Z,76.50
2018-01-24T20:16:14.516Z,76.50
2018-01-24T20:18:42.077Z,76.40
2018-01-24T20:21:09.617Z,76.40
2018-01-24T20:23:37.192Z,76.40
2018-01-24T20:26:06.030Z,76.20
2018-01-24T20:28:33.621Z,76.30
2018-01-24T20:31:01.192Z,76.40
2018-01-24T20:33:28.772Z,76.40
2018-01-24T20:35:56.302Z,76.50
2018-01-24T20:38:23.838Z,76.70
2018-01-24T20:40:52.132Z,76.90
2018-01-24T20:43:19.699Z,76.80
2018-01-24T20:45:47.468Z,77.00
2018-01-24T20:48:15.039Z,77.00
2018-01-24T20:50:42.804Z,77.30
2018-01-24T20:53:10.338Z,77.20
2018-01-24T20:55:37.889Z,77.20
2018-01-24T20:58:06.170Z,77.30
2018-01-24T21:00:34.489Z,77.00
2018-01-24T21:03:02.456Z,77.00
2018-01-24T21:05:30.004Z,77.20
2018-01-24T21:07:57.578Z,77.20
2018-01-24T21:10:25.119Z,77.40
2018-01-24T21:12:52.673Z,77.40
2018-01-24T21:15:20.489Z,77.60
2018-01-24T21:17:48.788Z,77.60
2018-01-24T21:20:17.146Z,77.80
2018-01-24T21:22:44.855Z,77.80
2018-01-24T21:25:12.393Z,77.90
2018-01-24T21:27:39.916Z,77.90
2018-01-24T21:30:19.466Z,78.80
2018-01-24T21:32:59.870Z,78.80
2018-01-24T21:38:28.908Z,77.70
2018-01-24T21:40:56.468Z,77.90
2018-01-24T21:43:24.066Z,78.70
2018-01-24T21:45:52.009Z,78.00
2018-01-24T21:48:19.601Z,78.40
2018-01-24T21:50:47.890Z,78.00
2018-01-24T21:53:16.284Z,78.10
2018-01-24T21:55:43.798Z,78.10
2018-01-24T21:58:11.361Z,78.10
2018-01-24T22:00:38.889Z,78.20
2018-01-24T22:03:06.447Z,78.10
2018-01-24T22:05:33.972Z,78.20
2018-01-24T22:08:01.548Z,78.20
2018-01-24T22:10:29.071Z,78.30
2018-01-24T22:12:56.609Z,78.30
2018-01-24T22:15:24.149Z,78.30
2018-01-24T22:17:51.704Z,78.50
2018-01-24T22:20:19.256Z,78.50
2018-01-24T22:22:46.869Z,78.30
2018-01-24T22:25:15.161Z,78.50
2018-01-24T22:27:43.547Z,78.70
2018-01-24T22:30:11.207Z,78.70
2018-01-24T22:32:38.750Z,78.70
2018-01-24T22:35:07.038Z,78.70
2018-01-24T22:37:34.611Z,79.40
2018-01-24T22:40:02.139Z,78.80
2018-01-24T22:42:30.460Z,78.90
2018-01-24T22:44:57.966Z,78.90
2018-01-24T22:47:25.585Z,78.80
2018-01-24T22:49:53.110Z,79.50
2018-01-24T22:52:21.407Z,78.80
2018-01-24T22:54:48.954Z,78.80
2018-01-24T22:57:16.514Z,78.90
2018-01-24T22:59:44.036Z,78.90
2018-01-24T23:02:11.660Z,78.80
2018-01-24T23:04:39.179Z,79.70
2018-01-24T23:07:06.737Z,79.00
2018-01-24T23:09:35.025Z,79.20
2018-01-24T23:12:02.632Z,79.20
2018-01-24T23:14:30.152Z,79.20
2018-01-24T23:16:57.691Z,79.40
2018-01-24T23:19:26.011Z,79.30
2018-01-24T23:21:53.555Z,79.20
2018-01-24T23:24:21.206Z,79.60
2018-01-24T23:26:48.772Z,79.60
2018-01-24T23:29:16.283Z,79.50
2018-01-24T23:31:43.881Z,79.70
2018-01-24T23:34:12.171Z,79.80
2018-01-24T23:36:39.720Z,79.80
2018-01-24T23:39:07.298Z,79.70
2018-01-24T23:41:34.848Z,80.00
2018-01-24T23:44:02.377Z,79.90
2018-01-24T23:46:30.825Z,80.00
2018-01-24T23:48:58.357Z,80.00
2018-01-24T23:51:26.010Z,80.00
2018-01-24T23:53:53.514Z,80.20
2018-01-24T23:56:21.059Z,80.20
2018-01-24T23:58:48.607Z,80.20
